Time;durP1;ratioP1;P1;durP2;ratioP2;P2;SDS_P1;SDS_P2;PMS_P1;PMS_P2;Temp;Humidity;BMP_temperature;BMP_pressure;BME280_temperature;BME280_humidity;BME280_pressure;Samples;Min_cycle;Max_cycle;Signal;HPM_P1;HPM_P2
2022/06/10 00:00:02;;;;;;;4.95;4.45;;;;;;;15.68;100.00;99550.69;6191611;23;20019;-88
2022/06/10 00:02:30;;;;;;;5.50;4.65;;;;;;;15.69;100.00;99530.63;6216959;23;20083;-88
2022/06/10 00:04:56;;;;;;;4.95;4.50;;;;;;;15.70;100.00;99529.38;6167234;23;20115;-88
2022/06/10 00:07:21;;;;;;;5.82;4.82;;;;;;;15.74;100.00;99531.97;6190697;23;20378;-88
2022/06/10 00:09:47;;;;;;;4.90;4.40;;;;;;;15.78;100.00;99527.72;6216460;23;20009;-87
2022/06/10 00:12:12;;;;;;;5.30;4.80;;;;;;;15.73;100.00;99525.59;6216963;23;20084;-86
2022/06/10 00:14:38;;;;;;;6.15;4.82;;;;;;;15.76;100.00;99529.47;6191189;23;20016;-85
2022/06/10 00:17:04;;;;;;;5.68;4.68;;;;;;;15.79;100.00;99528.50;6216505;23;20012;-86
2022/06/10 00:19:30;;;;;;;5.82;4.57;;;;;;;15.76;100.00;99524.66;6190461;23;20000;-86
2022/06/10 00:21:55;;;;;;;5.05;4.50;;;;;;;15.81;100.00;99535.13;6191599;23;20023;-86
2022/06/10 00:24:21;;;;;;;5.40;4.65;;;;;;;15.87;100.00;99529.63;6216873;23;20442;-86
2022/06/10 00:26:46;;;;;;;6.80;4.45;;;;;;;15.88;100.00;99533.22;6215410;23;20027;-86
2022/06/10 00:29:11;;;;;;;11.88;4.80;;;;;;;15.80;100.00;99519.63;6166708;23;20343;-85
2022/06/10 00:31:37;;;;;;;4.97;4.45;;;;;;;15.79;100.00;99523.69;6191269;23;20341;-88
2022/06/10 00:34:02;;;;;;;5.85;4.75;;;;;;;15.90;100.00;99530.69;6166107;23;20004;-89
2022/06/10 00:36:28;;;;;;;5.00;4.50;;;;;;;15.88;100.00;99538.81;6191096;23;20051;-87
2022/06/10 00:38:54;;;;;;;6.10;4.82;;;;;;;15.89;100.00;99537.56;6191169;23;20075;-87
2022/06/10 00:41:20;;;;;;;7.53;4.28;;;;;;;15.84;100.00;99542.56;6215603;23;20012;-88
2022/06/10 00:43:45;;;;;;;5.32;4.60;;;;;;;15.84;100.00;99545.38;6216507;23;20008;-87
2022/06/10 00:46:49;;;;;;;5.15;4.65;;;;;;;15.87;100.00;99543.63;6191000;23;20074;-88
2022/06/10 00:49:15;;;;;;;5.90;4.40;;;;;;;15.83;100.00;99541.03;6125238;23;20017;-87
2022/06/10 00:51:51;;;;;;;6.30;4.50;;;;;;;15.81;100.00;99546.31;6101136;23;20017;-87
2022/06/10 00:54:25;;;;;;;5.60;5.00;;;;;;;15.75;100.00;99534.28;6162883;23;20129;-86
2022/06/10 00:57:00;;;;;;;6.65;5.20;;;;;;;15.70;100.00;99523.78;6215527;23;20012;-87
2022/06/10 00:59:29;;;;;;;6.72;5.15;;;;;;;15.67;100.00;99533.16;6190391;23;20008;-88
2022/06/10 05:46:15;;;;;;;8.27;6.45;;;;;;;15.56;100.00;99818.13;6201041;23;20031;-86
2022/06/10 05:48:42;;;;;;;7.72;6.53;;;;;;;15.55;100.00;99816.56;6130319;23;20021;-86
2022/06/10 05:51:08;;;;;;;10.82;6.72;;;;;;;15.54;100.00;99809.41;6128568;23;20355;-87
2022/06/10 05:53:34;;;;;;;7.45;6.75;;;;;;;15.47;100.00;99798.56;6106430;23;20013;-87
2022/06/10 05:55:59;;;;;;;7.78;6.55;;;;;;;15.41;100.00;99789.28;6181338;23;20095;-88
2022/06/10 05:58:25;;;;;;;7.63;6.45;;;;;;;15.38;100.00;99799.41;6156193;23;20001;-88
2022/06/10 06:00:50;;;;;;;8.45;6.97;;;;;;;15.34;100.00;99800.81;6155360;23;20019;-88
2022/06/10 06:03:16;;;;;;;9.70;7.30;;;;;;;15.25;100.00;99790.47;6155372;23;20451;-89
2022/06/10 06:05:41;;;;;;;8.57;7.78;;;;;;;15.23;100.00;99803.38;6181759;23;20081;-87
2022/06/10 06:08:08;;;;;;;8.40;6.97;;;;;;;15.20;100.00;99801.53;6156528;23;20351;-95
2022/06/10 06:10:34;;;;;;;8.10;7.05;;;;;;;15.15;100.00;99788.22;6155837;23;20310;-92
2022/06/10 06:13:00;;;;;;;8.85;7.70;;;;;;;15.16;100.00;99793.34;6129602;23;20019;-94
2022/06/10 06:15:25;;;;;;;8.43;7.55;;;;;;;15.18;100.00;99773.28;6131880;23;20024;-91
2022/06/10 06:17:51;;;;;;;9.75;7.13;;;;;;;15.18;100.00;99799.22;6155246;23;20044;-90
2022/06/10 06:20:18;;;;;;;9.00;7.60;;;;;;;15.14;100.00;99793.03;6107196;23;20005;-89
2022/06/10 06:22:43;;;;;;;9.38;7.47;;;;;;;15.22;100.00;99804.63;6106706;23;20348;-93
2022/06/10 06:25:15;;;;;;;9.55;7.93;;;;;;;15.35;100.00;99799.56;6156485;23;20017;-91
2022/06/10 06:27:42;;;;;;;8.43;7.28;;;;;;;15.40;100.00;99808.09;6184729;23;20443;-92
2022/06/10 06:30:13;;;;;;;10.60;8.45;;;;;;;15.53;100.00;99807.84;6158567;23;20001;-94
2022/06/10 06:32:41;;;;;;;8.73;7.93;;;;;;;15.69;100.00;99818.63;6109765;23;20572;-96
2022/06/10 06:35:07;;;;;;;9.23;7.15;;;;;;;15.74;100.00;99812.38;6183398;23;20005;-84
2022/06/10 06:37:33;;;;;;;9.00;8.10;;;;;;;15.84;100.00;99822.25;6157933;23;20020;-84
2022/06/10 06:39:59;;;;;;;9.55;7.22;;;;;;;15.79;100.00;99831.31;6132959;23;20021;-85
2022/06/10 06:42:25;;;;;;;8.73;7.82;;;;;;;15.89;100.00;99839.63;6157913;23;20324;-84
2022/06/10 06:45:00;;;;;;;8.20;7.35;;;;;;;15.84;100.00;99844.63;6112353;23;20045;-85
2022/06/10 06:47:25;;;;;;;9.65;7.40;;;;;;;15.79;100.00;99859.25;6203584;23;20324;-84
2022/06/10 06:49:51;;;;;;;9.85;7.80;;;;;;;15.79;100.00;99853.66;6187079;23;20043;-85
2022/06/10 06:52:16;;;;;;;8.70;7.80;;;;;;;15.82;100.00;99858.31;6212807;23;20015;-85
2022/06/10 06:54:42;;;;;;;9.65;7.63;;;;;;;15.92;100.00;99866.63;6162197;23;20044;-85
2022/06/10 06:57:07;;;;;;;8.60;7.70;;;;;;;15.93;100.00;99873.78;6162818;23;20010;-84
2022/06/10 06:59:33;;;;;;;9.13;7.38;;;;;;;15.93;100.00;99885.75;6187353;23;20051;-85
2022/06/10 07:01:58;;;;;;;9.45;7.18;;;;;;;15.89;100.00;99901.16;6162286;23;20025;-85
2022/06/10 07:04:24;;;;;;;8.13;7.30;;;;;;;15.88;100.00;99910.78;6162259;23;20078;-85
2022/06/10 07:06:50;;;;;;;8.63;6.60;;;;;;;15.83;100.00;99915.78;6187103;23;20015;-84
2022/06/10 07:09:15;;;;;;;11.40;8.02;;;;;;;15.80;100.00;99921.56;6162532;23;20022;-85
2022/06/10 07:11:41;;;;;;;14.43;7.55;;;;;;;15.74;100.00;99901.84;6187150;23;20331;-85
2022/06/10 07:14:07;;;;;;;8.07;7.28;;;;;;;15.72;100.00;99909.97;6162214;23;20075;-85
2022/06/10 07:16:33;;;;;;;9.07;7.55;;;;;;;15.77;100.00;99917.69;6187437;23;20399;-84
2022/06/10 07:18:58;;;;;;;9.38;7.18;;;;;;;15.79;100.00;99904.00;6137307;23;20012;-85
2022/06/10 07:21:24;;;;;;;10.27;7.50;;;;;;;15.86;100.00;99906.44;6138021;23;20324;-84
2022/06/10 07:23:49;;;;;;;9.40;7.25;;;;;;;15.93;100.00;99896.94;6186754;23;20008;-86
2022/06/10 07:26:16;;;;;;;8.10;7.18;;;;;;;15.96;100.00;99892.41;6161848;23;20019;-84
2022/06/10 07:28:42;;;;;;;8.27;7.47;;;;;;;16.02;100.00;99898.88;6186154;23;20356;-84
2022/06/10 07:31:07;;;;;;;8.75;7.00;;;;;;;16.08;100.00;99894.19;6137928;23;20016;-93
2022/06/10 07:33:35;;;;;;;7.90;7.07;;;;;;;16.13;100.00;99901.91;6137728;23;20020;-94
2022/06/10 07:36:02;;;;;;;7.82;7.00;;;;;;;16.17;100.00;99888.50;6138150;23;20394;-93
2022/06/10 07:38:28;;;;;;;7.32;6.63;;;;;;;16.20;100.00;99895.94;6187510;23;20027;-92
2022/06/10 07:43:40;;;;;;;7.50;6.78;;;;;;;16.59;100.00;99911.47;6164308;23;20048;-92
2022/06/10 07:46:06;;;;;;;7.10;6.40;;;;;;;16.86;100.00;99899.25;6184708;23;20000;-89
2022/06/10 07:48:31;;;;;;;7.63;6.85;;;;;;;17.09;100.00;99891.97;6181923;23;20024;-92
2022/06/10 07:50:57;;;;;;;8.00;6.20;;;;;;;17.31;100.00;99903.50;6241544;23;20019;-85
2022/06/10 07:53:23;;;;;;;7.18;5.97;;;;;;;17.45;100.00;99899.94;6189970;23;20026;-85
2022/06/10 07:55:48;;;;;;;6.95;5.75;;;;;;;17.52;100.00;99910.72;6191498;23;20402;-84
2022/06/10 07:58:16;;;;;;;6.82;5.45;;;;;;;17.73;100.00;99910.78;6167005;23;20016;-85
2022/06/10 08:00:42;;;;;;;6.10;5.50;;;;;;;17.80;100.00;99913.19;6191585;23;20019;-85
2022/06/10 08:03:08;;;;;;;6.50;5.80;;;;;;;17.79;100.00;99906.03;6167169;23;20008;-85
2022/06/10 08:05:34;;;;;;;6.78;5.82;;;;;;;17.94;100.00;99923.59;6216898;23;20066;-85
2022/06/10 08:08:01;;;;;;;8.05;5.75;;;;;;;17.95;100.00;99909.06;6190498;23;20142;-85
2022/06/10 08:10:30;;;;;;;6.60;5.45;;;;;;;17.92;100.00;99914.88;6192656;23;20012;-91
2022/06/10 08:12:56;;;;;;;7.65;5.40;;;;;;;17.94;100.00;99920.78;6216385;23;20019;-85
2022/06/10 08:15:22;;;;;;;6.00;5.40;;;;;;;17.86;100.00;99909.19;6191379;23;20016;-87
2022/06/10 08:17:48;;;;;;;6.45;5.72;;;;;;;17.79;100.00;99911.66;6191336;23;20517;-85
2022/06/10 08:20:20;;;;;;;6.32;5.47;;;;;;;17.85;100.00;99920.91;6166824;23;20099;-85
2022/06/10 08:22:46;;;;;;;6.03;5.43;;;;;;;17.82;100.00;99919.09;6190782;23;20016;-85
2022/06/10 08:25:12;;;;;;;6.95;5.47;;;;;;;17.74;100.00;99915.16;6241934;23;20419;-86
2022/06/10 08:27:40;;;;;;;5.78;5.20;;;;;;;17.74;100.00;99915.91;6191764;23;20015;-89
2022/06/10 08:30:08;;;;;;;6.10;5.35;;;;;;;17.70;100.00;99918.94;6243382;23;20343;-86
2022/06/10 08:32:34;;;;;;;6.40;5.47;;;;;;;17.80;100.00;99924.41;6166910;23;20004;-86
2022/06/10 08:34:59;;;;;;;6.13;5.43;;;;;;;17.81;100.00;99915.50;6216009;23;20095;-85
2022/06/10 08:37:25;;;;;;;7.47;5.28;;;;;;;17.84;100.00;99919.34;6191903;23;20012;-87
2022/06/10 08:39:51;;;;;;;8.80;5.38;;;;;;;17.70;100.00;99932.19;6215577;23;20411;-85
2022/06/10 08:42:40;;;;;;;6.65;5.40;;;;;;;17.73;100.00;99936.81;6191856;23;19996;-85
2022/06/10 08:45:19;;;;;;;6.82;5.70;;;;;;;17.73;100.00;99953.66;6192010;23;20004;-85
2022/06/10 08:47:53;;;;;;;6.53;5.25;;;;;;;17.84;100.00;99958.63;6209958;23;20020;-85
2022/06/10 08:50:31;;;;;;;5.90;5.30;;;;;;;17.92;100.00;99943.69;6216578;23;20015;-85
2022/06/10 08:53:08;;;;;;;9.85;6.00;;;;;;;17.95;100.00;99961.63;6215590;23;20020;-85
2022/06/10 08:56:00;;;;;;;6.07;5.47;;;;;;;18.02;100.00;99964.78;6191603;23;20012;-87
2022/06/10 08:58:55;;;;;;;7.70;5.82;;;;;;;18.29;100.00;99949.53;6192048;23;20453;-85
2022/06/10 09:01:22;;;;;;;9.20;5.57;;;;;;;18.60;100.00;99960.16;6216564;23;20012;-86
2022/06/10 09:03:50;;;;;;;7.40;5.57;;;;;;;18.77;100.00;99960.31;6191144;23;20051;-85
2022/06/10 09:06:36;;;;;;;6.22;5.63;;;;;;;18.69;100.00;99976.06;6216581;23;20015;-86
2022/06/10 09:09:05;;;;;;;9.82;5.72;;;;;;;19.17;100.00;99960.19;6190565;23;20094;-86
2022/06/10 09:11:37;;;;;;;6.53;5.30;;;;;;;19.66;99.23;99978.00;6216678;23;20004;-85
2022/06/10 09:14:16;;;;;;;7.30;5.32;;;;;;;19.94;95.09;99964.88;6243002;23;20107;-88
2022/06/10 09:16:46;;;;;;;5.47;4.97;;;;;;;20.08;94.86;99980.81;6191559;23;20064;-87
2022/06/10 09:19:39;;;;;;;5.72;5.05;;;;;;;19.77;94.92;99978.09;6243066;23;20058;-86
2022/06/10 09:22:30;;;;;;;6.25;5.20;;;;;;;19.72;96.79;99988.03;6191293;23;20039;-86
2022/06/10 09:25:34;;;;;;;6.10;5.50;;;;;;;19.63;97.13;99981.81;6216446;23;20020;-89
2022/06/10 09:28:01;;;;;;;5.68;5.13;;;;;;;19.69;95.90;99971.38;6124932;23;20026;-88
2022/06/10 09:30:57;;;;;;;9.00;5.28;;;;;;;19.88;95.04;99983.78;6174854;23;20027;-88
2022/06/10 09:33:38;;;;;;;7.22;5.25;;;;;;;19.60;95.47;99983.59;6181939;23;20098;-89
2022/06/10 09:36:34;;;;;;;7.45;4.85;;;;;;;19.59;96.67;99979.25;6216038;23;20019;-88
2022/06/10 09:39:05;;;;;;;6.75;5.32;;;;;;;19.74;95.59;99976.25;6190351;23;20020;-89
2022/06/10 09:41:34;;;;;;;6.60;4.90;;;;;;;20.11;95.05;99979.81;6216228;23;20481;-88
2022/06/10 09:44:45;;;;;;;6.50;5.75;;;;;;;20.27;91.89;99972.72;6242581;23;20516;-88
2022/06/10 09:47:27;;;;;;;5.65;5.07;;;;;;;19.97;93.31;99975.16;6160853;23;20056;-87
2022/06/10 09:50:15;;;;;;;8.93;5.17;;;;;;;19.90;94.22;99982.00;6187326;23;20016;-87
2022/06/10 09:52:55;;;;;;;6.13;5.00;;;;;;;20.13;92.43;99988.53;6162671;23;20044;-86
2022/06/10 09:55:24;;;;;;;5.82;5.32;;;;;;;20.44;91.01;99991.28;6187838;23;20108;-88
2022/06/10 09:58:08;;;;;;;8.00;5.18;;;;;;;20.65;89.67;99996.72;6187571;23;20459;-87
2022/06/10 10:00:41;;;;;;;5.68;5.05;;;;;;;20.57;90.45;99988.00;6187954;23;20043;-87
2022/06/10 10:03:21;;;;;;;6.13;5.05;;;;;;;20.51;91.44;99984.38;6162814;23;20047;-87
2022/06/10 10:06:14;;;;;;;7.35;5.35;;;;;;;20.40;90.59;100002.00;6214217;23;20036;-86
2022/06/10 10:08:47;;;;;;;7.80;5.55;;;;;;;20.42;89.56;99985.34;6213704;23;20525;-88
2022/06/10 10:11:50;;;;;;;5.50;5.00;;;;;;;20.26;90.03;99997.28;6212626;23;20017;-88
2022/06/10 10:14:21;;;;;;;6.43;4.68;;;;;;;20.69;90.72;99989.56;6162515;23;20013;-89
2022/06/10 10:16:57;;;;;;;6.85;5.20;;;;;;;20.88;88.77;99989.88;6213858;23;20016;-88
2022/06/10 10:19:52;;;;;;;7.95;5.43;;;;;;;21.26;87.87;100003.31;6183734;23;20562;-89
2022/06/10 10:22:39;;;;;;;6.72;5.55;;;;;;;21.30;86.10;99995.34;6134394;23;20020;-86
2022/06/10 10:25:15;;;;;;;9.98;5.70;;;;;;;21.52;84.35;99979.69;6211991;23;20012;-88
2022/06/10 10:27:40;;;;;;;5.85;4.80;;;;;;;21.40;84.39;99990.97;6160696;23;20104;-86
2022/06/10 10:30:21;;;;;;;7.22;5.70;;;;;;;21.49;83.80;99969.44;6184411;23;20044;-87
2022/06/10 10:33:03;;;;;;;5.78;5.20;;;;;;;21.71;84.21;99975.06;6185931;23;20016;-87
2022/06/10 10:35:37;;;;;;;11.52;5.32;;;;;;;21.42;83.77;99989.72;6185532;23;20017;-87
2022/06/10 10:38:07;;;;;;;7.70;5.10;;;;;;;21.44;84.86;99989.94;6184982;23;20172;-88
2022/06/10 10:40:47;;;;;;;6.28;5.65;;;;;;;21.52;85.76;99974.81;6160532;23;20020;-87
2022/06/10 10:43:23;;;;;;;7.68;5.78;;;;;;;21.51;84.35;99972.53;6135840;23;20443;-88
2022/06/10 10:46:23;;;;;;;8.50;5.13;;;;;;;21.66;83.20;99992.78;6209832;23;20025;-89
2022/06/10 10:48:49;;;;;;;5.65;5.00;;;;;;;21.70;83.72;99984.81;6159929;23;20406;-88
2022/06/10 10:51:18;;;;;;;6.05;5.07;;;;;;;21.88;84.40;99993.50;6184915;23;20013;-87
2022/06/10 10:53:55;;;;;;;6.72;5.10;;;;;;;22.04;81.98;100000.44;6210450;23;20324;-88
2022/06/10 10:56:30;;;;;;;6.40;4.88;;;;;;;22.04;82.28;99991.97;6209100;23;20048;-87
2022/06/10 10:58:57;;;;;;;5.68;5.00;;;;;;;22.16;80.69;99993.47;6182222;23;20068;-87
2022/06/10 11:01:44;;;;;;;6.95;4.95;;;;;;;22.25;81.53;99996.00;6158723;23;20042;-90
2022/06/10 11:04:35;;;;;;;8.38;5.60;;;;;;;22.25;80.97;99984.72;6184529;23;20020;-88
2022/06/10 11:07:21;;;;;;;6.72;5.53;;;;;;;22.05;81.88;100006.84;6184300;23;20063;-86
2022/06/10 11:09:52;;;;;;;8.23;5.13;;;;;;;22.14;81.58;99990.41;6160185;23;20017;-88
2022/06/10 11:12:20;;;;;;;5.88;5.32;;;;;;;22.32;80.46;99991.91;6185033;23;20015;-87
2022/06/10 11:14:49;;;;;;;5.88;5.30;;;;;;;22.35;82.15;99992.91;6184839;23;20023;-87
2022/06/10 11:17:19;;;;;;;6.45;5.15;;;;;;;22.49;80.54;99995.41;6160139;23;20440;-87
2022/06/10 11:19:55;;;;;;;10.23;5.63;;;;;;;22.54;79.36;99994.63;6160364;23;20513;-88
2022/06/10 11:22:26;;;;;;;7.72;5.57;;;;;;;22.54;79.63;99993.84;6159354;23;20025;-89
2022/06/10 11:25:03;;;;;;;7.10;5.20;;;;;;;22.52;80.10;99987.97;6184902;23;20028;-87
2022/06/10 11:27:37;;;;;;;8.90;5.40;;;;;;;22.72;79.25;99982.75;6184573;23;20024;-87
2022/06/10 11:30:15;;;;;;;5.78;5.18;;;;;;;22.60;77.92;99994.59;6184051;23;20080;-87
2022/06/10 11:32:47;;;;;;;7.40;5.43;;;;;;;22.58;78.30;99989.47;6211513;23;20028;-89
2022/06/10 11:35:32;;;;;;;6.80;5.35;;;;;;;22.63;79.58;99988.66;6184400;23;20017;-86
2022/06/10 11:38:15;;;;;;;9.15;6.13;;;;;;;22.64;77.82;99995.88;6208404;23;20020;-91
2022/06/10 11:40:43;;;;;;;6.78;4.95;;;;;;;22.68;78.99;99970.16;6211668;23;20094;-86
2022/06/10 11:43:22;;;;;;;5.95;5.20;;;;;;;22.44;78.19;100001.09;6158419;23;20009;-86
2022/06/10 11:46:16;;;;;;;6.22;5.18;;;;;;;22.21;80.27;99977.78;6210323;23;20039;-85
2022/06/10 11:48:47;;;;;;;7.30;5.63;;;;;;;22.30;80.39;99986.75;6185290;23;20012;-85
2022/06/10 11:51:18;;;;;;;6.80;5.72;;;;;;;22.42;82.17;99975.41;6183984;23;20358;-85
2022/06/10 11:53:56;;;;;;;6.65;5.47;;;;;;;22.42;79.15;99983.88;6184314;23;20454;-86
2022/06/10 11:59:49;;;;;;;6.85;5.93;;;;;;;22.40;79.09;99978.75;6187611;23;20375;-90
2022/06/10 12:02:25;;;;;;;8.70;5.75;;;;;;;22.59;78.25;99978.94;6159333;23;20023;-87
2022/06/10 12:05:09;;;;;;;7.38;5.80;;;;;;;22.51;78.85;99987.19;6184806;23;20063;-88
2022/06/10 12:07:38;;;;;;;9.45;5.57;;;;;;;22.43;78.70;99980.53;6210743;23;20024;-87
2022/06/10 12:10:06;;;;;;;6.35;5.35;;;;;;;22.29;79.56;99979.56;6159399;23;20446;-91
2022/06/10 12:12:38;;;;;;;8.23;6.20;;;;;;;22.31;78.00;99982.66;6159672;23;20021;-88
2022/06/10 12:15:25;;;;;;;8.10;6.07;;;;;;;22.45;76.95;99980.00;6160813;23;20435;-89
2022/06/10 12:17:57;;;;;;;8.05;5.35;;;;;;;22.59;77.66;99961.97;6185897;23;20102;-88
2022/06/10 12:20:36;;;;;;;6.68;5.93;;;;;;;22.52;77.68;99983.06;6160285;23;20059;-91
2022/06/10 12:23:14;;;;;;;6.13;5.57;;;;;;;22.45;78.83;99980.78;6161875;23;20510;-90
2022/06/10 12:26:01;;;;;;;6.28;5.15;;;;;;;22.33;78.88;99979.28;6211145;23;20020;-88
2022/06/10 12:28:35;;;;;;;9.15;5.35;;;;;;;22.45;78.19;99977.19;6185358;23;20024;-92
2022/06/10 12:31:18;;;;;;;7.40;5.00;;;;;;;22.35;78.40;99959.00;6186024;23;20012;-90
2022/06/10 12:33:49;;;;;;;9.50;5.22;;;;;;;22.32;80.04;99955.91;6184033;23;20021;-88
2022/06/10 12:36:25;;;;;;;6.40;5.00;;;;;;;22.66;78.53;99962.19;6183754;23;20019;-86
2022/06/10 12:38:52;;;;;;;5.38;4.88;;;;;;;22.76;78.48;99952.13;6209070;23;20462;-89
2022/06/10 12:41:28;;;;;;;8.18;4.80;;;;;;;22.89;76.74;99953.59;6209023;23;20017;-87
2022/06/10 12:43:59;;;;;;;7.55;4.95;;;;;;;22.75;77.06;99953.41;6183493;23;20017;-88
2022/06/10 12:46:48;;;;;;;5.82;5.00;;;;;;;22.73;77.58;99961.66;6182432;23;20458;-88
2022/06/10 12:49:30;;;;;;;8.02;5.07;;;;;;;22.64;77.16;99944.97;6185136;23;20020;-88
2022/06/10 12:52:26;;;;;;;8.53;5.13;;;;;;;22.71;77.45;99960.63;6185935;23;20020;-90
2022/06/10 12:54:59;;;;;;;6.15;4.82;;;;;;;22.74;76.91;99968.06;6175891;23;20055;-90
2022/06/10 12:57:27;;;;;;;6.78;5.03;;;;;;;22.74;76.46;99968.06;6161433;23;20036;-86
2022/06/10 13:00:18;;;;;;;6.28;5.05;;;;;;;22.36;76.96;99961.31;6185376;23;20095;-86
2022/06/10 13:02:49;;;;;;;7.68;5.25;;;;;;;22.59;77.33;99961.97;6185794;23;20396;-85
2022/06/10 13:05:19;;;;;;;5.72;5.10;;;;;;;22.75;76.04;99963.97;6160502;23;20017;-85
2022/06/10 13:07:45;;;;;;;6.38;5.30;;;;;;;22.67;76.53;99957.28;6210814;23;20084;-85
2022/06/10 13:10:42;;;;;;;7.85;5.03;;;;;;;22.87;77.32;99962.59;6136180;23;20016;-85
2022/06/10 13:13:25;;;;;;;6.78;5.30;;;;;;;22.81;75.97;99950.53;6160878;23;20008;-86
2022/06/10 13:15:53;;;;;;;6.40;5.40;;;;;;;22.69;76.24;99944.19;6136508;23;20023;-85
2022/06/10 13:18:21;;;;;;;6.38;5.10;;;;;;;22.64;76.42;99964.00;6136185;23;20079;-93
2022/06/10 13:20:48;;;;;;;10.65;5.65;;;;;;;22.69;76.93;99957.56;6185369;23;20020;-90
2022/06/10 13:23:21;;;;;;;7.15;5.40;;;;;;;22.81;75.94;99961.84;6186377;23;20048;-90
2022/06/10 13:26:10;;;;;;;6.18;5.53;;;;;;;22.93;75.84;99968.97;6188131;23;20013;-91
2022/06/10 13:28:42;;;;;;;6.47;5.78;;;;;;;22.86;75.28;99963.13;6186302;23;20359;-88
2022/06/10 13:31:18;;;;;;;7.07;4.90;;;;;;;22.89;74.62;99960.00;6186569;23;20027;-89
2022/06/10 13:33:57;;;;;;;8.18;5.18;;;;;;;22.87;75.50;99953.34;6137414;23;20016;-88
2022/06/10 13:36:42;;;;;;;6.72;4.75;;;;;;;22.94;74.54;99964.84;6210025;23;20405;-85
2022/06/10 13:39:22;;;;;;;6.07;4.97;;;;;;;22.81;74.34;99959.03;6161578;23;20024;-84
2022/06/10 13:41:54;;;;;;;8.60;5.88;;;;;;;22.88;75.47;99955.66;6186849;23;20015;-86
2022/06/10 13:44:36;;;;;;;6.30;5.25;;;;;;;22.75;74.98;99963.97;6137774;23;20459;-85
2022/06/10 13:47:17;;;;;;;5.90;5.30;;;;;;;22.70;74.84;99961.94;6146847;23;20392;-85
2022/06/10 13:53:04;;;;;;;7.35;5.30;;;;;;;22.69;74.96;99971.69;6145545;23;20582;-84
2022/06/10 13:55:41;;;;;;;8.32;5.65;;;;;;;22.64;74.00;99964.78;6211735;23;20020;-86
2022/06/10 13:58:08;;;;;;;7.10;4.47;;;;;;;22.58;75.86;99960.41;6211600;23;20016;-85
2022/06/10 14:00:42;;;;;;;8.77;5.40;;;;;;;22.76;76.28;99963.44;6211405;23;20021;-83
2022/06/10 14:03:34;;;;;;;9.68;5.47;;;;;;;22.92;74.45;99967.47;6211732;23;20075;-85
2022/06/10 14:06:23;;;;;;;6.47;5.00;;;;;;;22.99;74.44;99961.22;6167318;23;20225;-84
2022/06/10 14:09:00;;;;;;;7.03;5.50;;;;;;;22.80;74.29;99966.00;6218059;23;20462;-85
2022/06/10 14:11:26;;;;;;;5.85;5.22;;;;;;;22.90;74.82;99964.38;6168107;23;20020;-85
2022/06/10 14:14:04;;;;;;;9.20;5.45;;;;;;;22.92;74.85;99973.13;6217781;23;20004;-85
2022/06/10 14:16:32;;;;;;;7.82;5.38;;;;;;;22.91;74.38;99973.63;6192740;23;20016;-86
2022/06/10 14:19:00;;;;;;;6.53;5.20;;;;;;;22.75;74.36;99978.09;6192203;23;20005;-84
2022/06/10 14:21:27;;;;;;;9.60;5.78;;;;;;;22.69;74.26;99957.56;6191655;23;20036;-84
2022/06/10 14:24:17;;;;;;;6.95;4.90;;;;;;;22.72;74.64;99951.66;6216173;23;20016;-86
2022/06/10 14:26:42;;;;;;;6.78;4.55;;;;;;;22.92;75.28;99970.28;6216745;23;20094;-85
2022/06/10 14:29:24;;;;;;;6.13;4.60;;;;;;;23.07;75.56;99975.59;6215993;23;20438;-84
2022/06/10 14:32:04;;;;;;;6.10;5.47;;;;;;;23.06;74.00;99969.16;6167836;23;20016;-90
2022/06/10 14:34:29;;;;;;;9.88;5.22;;;;;;;22.80;74.28;99979.38;6192615;23;20320;-89
2022/06/10 14:37:04;;;;;;;8.20;5.32;;;;;;;22.79;75.75;99981.41;6190952;23;20123;-90
2022/06/10 14:39:32;;;;;;;7.95;5.53;;;;;;;22.73;74.36;99981.44;6190188;23;20091;-88
2022/06/10 14:42:24;;;;;;;6.10;5.30;;;;;;;22.94;75.62;99979.00;6166099;23;20012;-89
2022/06/10 14:44:55;;;;;;;7.78;5.18;;;;;;;23.03;75.36;99983.56;6186678;23;20358;-87
2022/06/10 14:47:26;;;;;;;7.38;5.20;;;;;;;22.82;74.95;99973.94;6215908;23;20016;-89
2022/06/10 14:50:01;;;;;;;8.32;5.03;;;;;;;22.69;74.35;99988.66;6216216;23;20013;-85
2022/06/10 14:52:43;;;;;;;7.50;5.30;;;;;;;22.80;75.75;99988.63;6191017;23;20012;-83
2022/06/10 14:55:33;;;;;;;6.90;5.15;;;;;;;22.71;74.61;99994.56;6192096;23;20099;-84
2022/06/10 14:58:13;;;;;;;6.55;5.07;;;;;;;22.66;74.32;99989.69;6217573;23;20079;-85
2022/06/10 15:00:41;;;;;;;7.30;5.72;;;;;;;22.67;74.24;100005.34;6214645;23;20012;-85
2022/06/10 15:03:17;;;;;;;7.90;5.63;;;;;;;22.57;74.70;99987.91;6190067;23;20012;-86
2022/06/10 15:08:28;;;;;;;7.45;5.47;;;;;;;22.38;74.97;100008.81;6218203;23;20405;-85
2022/06/10 15:10:53;;;;;;;6.95;5.72;;;;;;;22.20;76.00;100004.53;6213645;23;20004;-89
2022/06/10 15:13:31;;;;;;;6.22;5.50;;;;;;;22.27;76.76;100003.97;6238774;23;20039;-88
2022/06/10 15:15:57;;;;;;;7.53;5.45;;;;;;;22.35;76.48;100010.63;6189166;23;20451;-89
2022/06/10 15:18:23;;;;;;;7.35;5.30;;;;;;;22.40;75.63;100006.25;6191165;23;20007;-90
2022/06/10 15:20:50;;;;;;;6.63;5.15;;;;;;;22.38;75.91;99998.28;6191471;23;20016;-89
2022/06/10 15:23:17;;;;;;;10.23;5.70;;;;;;;22.46;75.13;100004.16;6166942;23;20031;-88
2022/06/10 15:25:45;;;;;;;8.40;5.22;;;;;;;22.30;75.75;99986.75;6166831;23;20012;-90
2022/06/10 15:28:20;;;;;;;11.38;5.63;;;;;;;22.31;76.08;99999.59;6166959;23;20023;-88
2022/06/10 15:30:47;;;;;;;10.18;5.50;;;;;;;22.28;75.47;100006.28;6216970;23;20019;-89
2022/06/10 15:33:14;;;;;;;7.63;5.60;;;;;;;22.31;76.51;100002.44;6191993;23;20043;-89
2022/06/10 15:41:18;;;;;;;6.40;5.40;;;;;;;22.04;77.52;100011.72;6216025;23;20442;-88
2022/06/10 15:43:46;;;;;;;6.55;5.70;;;;;;;21.95;77.83;100006.38;6192305;23;20016;-90
2022/06/10 15:46:18;;;;;;;10.60;5.95;;;;;;;21.83;77.66;100010.47;6215594;23;20401;-88
2022/06/10 15:48:44;;;;;;;8.48;5.50;;;;;;;21.59;78.96;100001.78;6191759;23;20801;-84
2022/06/10 15:51:21;;;;;;;7.53;6.78;;;;;;;21.38;80.29;100010.50;6191558;23;20397;-84
2022/06/10 15:53:48;;;;;;;7.50;5.35;;;;;;;21.19;80.74;100006.59;6191577;23;20015;-84
2022/06/10 15:59:12;;;;;;;8.73;5.90;;;;;;;20.84;82.71;100000.63;6220488;23;20015;-83
2022/06/10 16:01:37;;;;;;;8.75;5.97;;;;;;;20.73;84.05;100009.81;6191223;23;20098;-85
2022/06/10 16:04:03;;;;;;;7.65;6.30;;;;;;;20.62;83.89;100000.56;6241079;23;20384;-84
2022/06/10 16:06:29;;;;;;;9.63;6.18;;;;;;;20.46;84.45;99999.22;6216453;23;20012;-87
2022/06/10 16:08:54;;;;;;;8.35;6.18;;;;;;;20.46;85.70;100004.88;6241782;23;20014;-87
2022/06/10 16:11:20;;;;;;;8.63;6.88;;;;;;;20.36;85.03;100006.34;6216419;23;20038;-87
2022/06/10 16:13:47;;;;;;;7.18;6.32;;;;;;;20.38;85.13;100009.44;6243150;23;20456;-83
2022/06/10 16:16:20;;;;;;;6.57;5.88;;;;;;;20.55;84.54;100001.81;6215294;23;20120;-90
2022/06/10 16:18:46;;;;;;;6.97;6.00;;;;;;;20.76;83.75;99999.56;6166964;23;20016;-91
2022/06/10 16:21:16;;;;;;;8.30;6.22;;;;;;;21.03;83.10;100003.75;6166649;23;20058;-90
2022/06/10 16:23:41;;;;;;;7.57;6.20;;;;;;;21.09;81.88;100012.97;6191862;23;20401;-89
2022/06/10 16:26:14;;;;;;;8.02;5.97;;;;;;;21.07;81.33;100007.84;6242815;23;20000;-85
2022/06/10 16:28:44;;;;;;;8.18;6.13;;;;;;;21.23;81.63;100015.59;6192005;23;20331;-84
2022/06/10 16:31:18;;;;;;;6.88;5.80;;;;;;;21.23;80.81;100004.31;6215907;23;20027;-84
2022/06/10 16:33:44;;;;;;;8.43;6.47;;;;;;;21.21;80.85;99992.78;6191604;23;20604;-83
2022/06/10 16:36:15;;;;;;;7.72;6.43;;;;;;;21.24;81.01;100005.84;6187527;23;20016;-84
2022/06/10 16:38:44;;;;;;;7.07;5.82;;;;;;;21.12;81.59;100004.28;6211379;23;20020;-83
2022/06/10 16:41:37;;;;;;;6.93;5.70;;;;;;;21.10;82.06;100006.84;6187518;23;20024;-84
2022/06/10 16:44:26;;;;;;;7.90;6.10;;;;;;;21.01;83.03;100006.31;6197954;23;20035;-84
2022/06/10 16:46:58;;;;;;;8.23;5.72;;;;;;;21.03;82.26;100010.13;6188750;23;20012;-84
2022/06/10 16:49:26;;;;;;;6.90;6.00;;;;;;;20.93;83.11;100003.22;6212354;23;20114;-84
2022/06/10 16:52:16;;;;;;;10.70;5.47;;;;;;;20.88;82.50;100018.84;6188144;23;20008;-84
2022/06/10 16:54:43;;;;;;;8.43;5.95;;;;;;;20.80;82.73;100003.69;6175913;23;20023;-84
2022/06/10 16:57:20;;;;;;;8.85;5.78;;;;;;;20.81;83.93;100008.06;6166144;23;20087;-84
2022/06/10 16:59:46;;;;;;;6.57;5.85;;;;;;;20.76;83.42;100017.25;6191022;23;20020;-85